sensor_id;sensor_type;location;lat;lon;timestamp;pressure;altitude;pressure_sealevel;temperature;humidity
69842;BME280;57138;51.326;-0.068;2022-07-29T00:00:09;100011.22;;;15.76;59.32
69842;BME280;57138;51.326;-0.068;2022-07-29T00:02:35;99994.16;;;15.64;59.25
69842;BME280;57138;51.326;-0.068;2022-07-29T00:05:03;99997.47;;;15.66;59.44
69842;BME280;57138;51.326;-0.068;2022-07-29T00:07:29;99991.34;;;15.59;59.44
69842;BME280;57138;51.326;-0.068;2022-07-29T00:09:55;100002.88;;;15.66;60.03
69842;BME280;57138;51.326;-0.068;2022-07-29T00:12:22;100006.38;;;15.67;59.72
69842;BME280;57138;51.326;-0.068;2022-07-29T00:14:49;99980.13;;;15.43;60.11
69842;BME280;57138;51.326;-0.068;2022-07-29T00:17:14;99993.91;;;15.54;60.37
69842;BME280;57138;51.326;-0.068;2022-07-29T00:19:40;100004.22;;;15.57;60.21
69842;BME280;57138;51.326;-0.068;2022-07-29T00:22:05;99971.63;;;15.28;60.38
69842;BME280;57138;51.326;-0.068;2022-07-29T00:24:31;99980.91;;;15.32;60.68
69842;BME280;57138;51.326;-0.068;2022-07-29T00:26:56;99944.56;;;15.04;60.82
69842;BME280;57138;51.326;-0.068;2022-07-29T00:29:22;99949.50;;;15.07;60.97
69842;BME280;57138;51.326;-0.068;2022-07-29T00:31:48;99984.94;;;15.23;61.08
69842;BME280;57138;51.326;-0.068;2022-07-29T00:34:13;99999.75;;;15.32;60.97
69842;BME280;57138;51.326;-0.068;2022-07-29T00:36:57;100005.00;;;15.27;61.41
69842;BME280;57138;51.326;-0.068;2022-07-29T00:39:23;99995.56;;;15.18;61.01
69842;BME280;57138;51.326;-0.068;2022-07-29T00:41:49;99984.81;;;15.18;61.36
69842;BME280;57138;51.326;-0.068;2022-07-29T00:44:15;99986.88;;;15.16;61.17
69842;BME280;57138;51.326;-0.068;2022-07-29T00:46:41;99966.31;;;15.03;61.58
69842;BME280;57138;51.326;-0.068;2022-07-29T00:49:06;99987.72;;;15.16;61.61
69842;BME280;57138;51.326;-0.068;2022-07-29T00:51:34;99999.91;;;15.19;61.77
69842;BME280;57138;51.326;-0.068;2022-07-29T00:54:01;99974.97;;;15.05;61.75
69842;BME280;57138;51.326;-0.068;2022-07-29T00:56:32;99963.47;;;14.98;61.83
69842;BME280;57138;51.326;-0.068;2022-07-29T00:58:59;99945.81;;;14.83;61.95
69842;BME280;57138;51.326;-0.068;2022-07-29T01:01:25;99946.66;;;14.84;61.90
69842;BME280;57138;51.326;-0.068;2022-07-29T01:03:51;99981.03;;;15.00;62.01
69842;BME280;57138;51.326;-0.068;2022-07-29T01:06:18;99977.75;;;14.98;62.60
69842;BME280;57138;51.326;-0.068;2022-07-29T01:08:45;99954.50;;;14.85;62.66
69842;BME280;57138;51.326;-0.068;2022-07-29T01:11:12;99968.53;;;14.87;62.46
69842;BME280;57138;51.326;-0.068;2022-07-29T01:13:38;99968.19;;;14.84;62.60
69842;BME280;57138;51.326;-0.068;2022-07-29T01:16:09;99939.97;;;14.68;62.84
69842;BME280;57138;51.326;-0.068;2022-07-29T01:18:42;99973.94;;;14.87;62.71
69842;BME280;57138;51.326;-0.068;2022-07-29T01:26:47;99982.66;;;14.83;62.80
69842;BME280;57138;51.326;-0.068;2022-07-29T01:29:28;99978.19;;;14.77;62.89
69842;BME280;57138;51.326;-0.068;2022-07-29T01:31:59;99982.16;;;14.74;63.17
69842;BME280;57138;51.326;-0.068;2022-07-29T01:34:38;99977.88;;;14.66;63.10
69842;BME280;57138;51.326;-0.068;2022-07-29T01:37:18;99958.69;;;14.56;63.10
69842;BME280;57138;51.326;-0.068;2022-07-29T01:39:46;99978.75;;;14.60;63.00
69842;BME280;57138;51.326;-0.068;2022-07-29T01:42:19;99979.94;;;14.64;62.84
69842;BME280;57138;51.326;-0.068;2022-07-29T01:45:12;99986.63;;;14.62;63.14
69842;BME280;57138;51.326;-0.068;2022-07-29T01:53:47;99965.47;;;14.33;63.67
69842;BME280;57138;51.326;-0.068;2022-07-29T01:56:16;99981.16;;;14.43;63.91
69842;BME280;57138;51.326;-0.068;2022-07-29T01:58:44;99972.75;;;14.33;63.87
69842;BME280;57138;51.326;-0.068;2022-07-29T02:01:15;99963.22;;;14.30;63.83
69842;BME280;57138;51.326;-0.068;2022-07-29T02:03:44;99959.94;;;14.28;63.68
69842;BME280;57138;51.326;-0.068;2022-07-29T02:06:11;99931.19;;;14.03;63.83
69842;BME280;57138;51.326;-0.068;2022-07-29T02:08:38;99941.06;;;14.10;64.30
69842;BME280;57138;51.326;-0.068;2022-07-29T02:11:05;99921.72;;;13.94;64.60
69842;BME280;57138;51.326;-0.068;2022-07-29T02:13:34;99974.88;;;14.24;64.70
69842;BME280;57138;51.326;-0.068;2022-07-29T02:16:02;99959.28;;;14.08;64.59
69842;BME280;57138;51.326;-0.068;2022-07-29T02:18:30;99984.44;;;14.20;65.10
69842;BME280;57138;51.326;-0.068;2022-07-29T02:20:58;99970.81;;;14.15;64.25
69842;BME280;57138;51.326;-0.068;2022-07-29T02:23:26;99950.22;;;14.02;64.47
69842;BME280;57138;51.326;-0.068;2022-07-29T02:25:53;99979.91;;;14.14;64.35
69842;BME280;57138;51.326;-0.068;2022-07-29T02:28:22;99966.75;;;14.06;64.56
69842;BME280;57138;51.326;-0.068;2022-07-29T02:30:51;99965.31;;;14.03;64.25
69842;BME280;57138;51.326;-0.068;2022-07-29T02:33:18;99976.66;;;14.05;64.95
69842;BME280;57138;51.326;-0.068;2022-07-29T02:35:46;99981.66;;;14.01;64.62
69842;BME280;57138;51.326;-0.068;2022-07-29T02:38:14;99973.88;;;13.93;64.58
69842;BME280;57138;51.326;-0.068;2022-07-29T02:41:11;99978.81;;;13.96;64.75
69842;BME280;57138;51.326;-0.068;2022-07-29T02:43:38;99953.28;;;13.74;64.81
69842;BME280;57138;51.326;-0.068;2022-07-29T02:46:06;99947.59;;;13.63;64.39
69842;BME280;57138;51.326;-0.068;2022-07-29T02:48:45;99966.09;;;13.78;64.70
69842;BME280;57138;51.326;-0.068;2022-07-29T02:51:54;99979.69;;;13.83;65.26
69842;BME280;57138;51.326;-0.068;2022-07-29T02:54:33;99969.41;;;13.74;65.03
69842;BME280;57138;51.326;-0.068;2022-07-29T02:57:18;99957.53;;;13.56;64.62
69842;BME280;57138;51.326;-0.068;2022-07-29T02:59:46;99977.75;;;13.65;64.90
69842;BME280;57138;51.326;-0.068;2022-07-29T03:02:13;99968.28;;;13.56;64.79
69842;BME280;57138;51.326;-0.068;2022-07-29T03:04:41;99968.09;;;13.51;65.08
69842;BME280;57138;51.326;-0.068;2022-07-29T03:07:08;99981.88;;;13.61;64.81
69842;BME280;57138;51.326;-0.068;2022-07-29T03:09:36;99969.31;;;13.55;65.29
69842;BME280;57138;51.326;-0.068;2022-07-29T03:12:04;99980.69;;;13.57;64.96
69842;BME280;57138;51.326;-0.068;2022-07-29T03:14:30;99982.72;;;13.55;65.04
69842;BME280;57138;51.326;-0.068;2022-07-29T03:16:57;99987.50;;;13.53;65.45
69842;BME280;57138;51.326;-0.068;2022-07-29T03:19:23;99975.34;;;13.44;65.51
69842;BME280;57138;51.326;-0.068;2022-07-29T03:21:49;99970.84;;;13.38;65.43
69842;BME280;57138;51.326;-0.068;2022-07-29T03:24:29;99977.22;;;13.37;65.82
69842;BME280;57138;51.326;-0.068;2022-07-29T03:26:56;99973.72;;;13.29;65.69
69842;BME280;57138;51.326;-0.068;2022-07-29T03:29:22;99986.72;;;13.33;66.06
69842;BME280;57138;51.326;-0.068;2022-07-29T03:31:47;99967.19;;;13.12;66.14
69842;BME280;57138;51.326;-0.068;2022-07-29T03:34:12;99992.31;;;13.24;65.56
69842;BME280;57138;51.326;-0.068;2022-07-29T03:36:38;99965.97;;;13.08;66.16
69842;BME280;57138;51.326;-0.068;2022-07-29T03:39:04;99963.09;;;13.03;66.27
69842;BME280;57138;51.326;-0.068;2022-07-29T03:41:31;99979.56;;;13.13;66.50
69842;BME280;57138;51.326;-0.068;2022-07-29T03:43:58;99974.84;;;13.02;66.54
69842;BME280;57138;51.326;-0.068;2022-07-29T03:46:26;99966.81;;;12.88;67.37
69842;BME280;57138;51.326;-0.068;2022-07-29T03:49:01;99991.97;;;13.01;67.38
69842;BME280;57138;51.326;-0.068;2022-07-29T03:51:28;99977.16;;;12.85;67.09
69842;BME280;57138;51.326;-0.068;2022-07-29T03:53:54;100002.31;;;12.97;67.07
69842;BME280;57138;51.326;-0.068;2022-07-29T03:56:21;99990.56;;;12.91;67.48
69842;BME280;57138;51.326;-0.068;2022-07-29T03:58:50;99971.41;;;12.81;67.13
69842;BME280;57138;51.326;-0.068;2022-07-29T04:01:17;99995.72;;;12.93;67.30
69842;BME280;57138;51.326;-0.068;2022-07-29T04:03:43;99985.59;;;12.88;66.92
69842;BME280;57138;51.326;-0.068;2022-07-29T04:06:11;99967.25;;;12.79;67.58
69842;BME280;57138;51.326;-0.068;2022-07-29T04:08:37;99974.50;;;12.78;67.11
69842;BME280;57138;51.326;-0.068;2022-07-29T04:11:03;99998.59;;;12.91;67.49
69842;BME280;57138;51.326;-0.068;2022-07-29T04:13:29;99980.47;;;12.80;67.54
69842;BME280;57138;51.326;-0.068;2022-07-29T04:15:54;99977.59;;;12.75;67.49
69842;BME280;57138;51.326;-0.068;2022-07-29T04:18:20;99998.00;;;12.89;67.80
69842;BME280;57138;51.326;-0.068;2022-07-29T04:20:46;99972.66;;;12.72;67.95
69842;BME280;57138;51.326;-0.068;2022-07-29T04:23:11;99994.91;;;12.92;68.26
69842;BME280;57138;51.326;-0.068;2022-07-29T04:25:37;100001.50;;;12.97;67.72
69842;BME280;57138;51.326;-0.068;2022-07-29T04:28:04;99965.19;;;12.81;68.17
69842;BME280;57138;51.326;-0.068;2022-07-29T04:30:30;100002.28;;;13.04;67.94
69842;BME280;57138;51.326;-0.068;2022-07-29T04:32:56;99983.75;;;12.95;68.30
69842;BME280;57138;51.326;-0.068;2022-07-29T04:35:21;99976.28;;;12.98;67.87
69842;BME280;57138;51.326;-0.068;2022-07-29T04:37:47;99975.66;;;13.02;68.42
69842;BME280;57138;51.326;-0.068;2022-07-29T04:40:13;100006.81;;;13.23;68.57
69842;BME280;57138;51.326;-0.068;2022-07-29T04:42:39;99985.09;;;13.18;69.10
69842;BME280;57138;51.326;-0.068;2022-07-29T04:45:05;99988.63;;;13.19;69.12
69842;BME280;57138;51.326;-0.068;2022-07-29T04:47:31;99995.00;;;13.24;69.22
69842;BME280;57138;51.326;-0.068;2022-07-29T04:50:01;100002.22;;;13.30;69.70
69842;BME280;57138;51.326;-0.068;2022-07-29T04:52:28;99995.22;;;13.29;69.92
69842;BME280;57138;51.326;-0.068;2022-07-29T04:54:53;100005.50;;;13.46;70.46
69842;BME280;57138;51.326;-0.068;2022-07-29T04:57:19;99981.56;;;13.38;70.14
69842;BME280;57138;51.326;-0.068;2022-07-29T04:59:44;100012.50;;;13.60;70.00
69842;BME280;57138;51.326;-0.068;2022-07-29T05:02:10;100014.91;;;13.69;70.30
69842;BME280;57138;51.326;-0.068;2022-07-29T05:04:35;99999.22;;;13.65;70.59
69842;BME280;57138;51.326;-0.068;2022-07-29T05:07:00;100009.47;;;13.82;70.58
69842;BME280;57138;51.326;-0.068;2022-07-29T05:09:26;99985.53;;;13.74;70.83
69842;BME280;57138;51.326;-0.068;2022-07-29T05:11:51;100013.91;;;14.01;71.21
69842;BME280;57138;51.326;-0.068;2022-07-29T05:14:17;99953.69;;;13.77;71.05
69842;BME280;57138;51.326;-0.068;2022-07-29T05:16:42;99992.72;;;14.18;71.52
69842;BME280;57138;51.326;-0.068;2022-07-29T05:19:08;99993.44;;;14.32;70.89
69842;BME280;57138;51.326;-0.068;2022-07-29T05:21:34;99977.63;;;14.43;70.92
69842;BME280;57138;51.326;-0.068;2022-07-29T05:23:59;99966.41;;;14.46;71.11
69842;BME280;57138;51.326;-0.068;2022-07-29T05:26:25;99990.81;;;14.76;70.75
69842;BME280;57138;51.326;-0.068;2022-07-29T05:28:50;99962.47;;;14.73;71.02
69842;BME280;57138;51.326;-0.068;2022-07-29T05:31:16;99983.13;;;14.98;70.53
69842;BME280;57138;51.326;-0.068;2022-07-29T05:33:42;99998.09;;;15.13;70.39
69842;BME280;57138;51.326;-0.068;2022-07-29T05:36:07;100015.47;;;15.35;69.84
69842;BME280;57138;51.326;-0.068;2022-07-29T05:38:33;100014.72;;;15.46;69.46
69842;BME280;57138;51.326;-0.068;2022-07-29T05:40:59;100005.72;;;15.53;69.30
69842;BME280;57138;51.326;-0.068;2022-07-29T05:43:27;100008.84;;;15.68;68.80
69842;BME280;57138;51.326;-0.068;2022-07-29T05:45:52;100005.81;;;15.76;68.43
69842;BME280;57138;51.326;-0.068;2022-07-29T05:48:18;99996.94;;;15.76;68.24
69842;BME280;57138;51.326;-0.068;2022-07-29T05:50:43;99989.06;;;15.74;67.68
69842;BME280;57138;51.326;-0.068;2022-07-29T05:53:09;99996.34;;;15.74;67.57
69842;BME280;57138;51.326;-0.068;2022-07-29T05:55:34;100000.25;;;15.78;67.29
69842;BME280;57138;51.326;-0.068;2022-07-29T05:58:00;99997.63;;;15.71;67.29
69842;BME280;57138;51.326;-0.068;2022-07-29T06:00:25;99988.06;;;15.57;66.91
69842;BME280;57138;51.326;-0.068;2022-07-29T06:02:50;100005.69;;;15.71;67.22
69842;BME280;57138;51.326;-0.068;2022-07-29T06:05:16;99997.09;;;15.62;66.97
69842;BME280;57138;51.326;-0.068;2022-07-29T06:07:42;100000.00;;;15.61;67.00
69842;BME280;57138;51.326;-0.068;2022-07-29T06:10:08;100003.78;;;15.60;67.38
69842;BME280;57138;51.326;-0.068;2022-07-29T06:12:34;100009.31;;;15.65;67.46
69842;BME280;57138;51.326;-0.068;2022-07-29T06:14:59;100002.22;;;15.52;67.46
69842;BME280;57138;51.326;-0.068;2022-07-29T06:17:25;99986.34;;;15.44;67.59
69842;BME280;57138;51.326;-0.068;2022-07-29T06:19:50;100024.78;;;15.70;67.30
69842;BME280;57138;51.326;-0.068;2022-07-29T06:22:16;100026.81;;;15.74;67.17
69842;BME280;57138;51.326;-0.068;2022-07-29T06:24:42;99985.66;;;15.49;67.07
69842;BME280;57138;51.326;-0.068;2022-07-29T06:27:10;100008.63;;;15.70;66.97
69842;BME280;57138;51.326;-0.068;2022-07-29T06:29:35;100013.56;;;15.73;67.14
69842;BME280;57138;51.326;-0.068;2022-07-29T06:32:01;99998.38;;;15.60;67.62
69842;BME280;57138;51.326;-0.068;2022-07-29T06:34:27;100014.97;;;15.75;67.24
69842;BME280;57138;51.326;-0.068;2022-07-29T06:36:53;100038.19;;;15.95;67.64
69842;BME280;57138;51.326;-0.068;2022-07-29T06:39:18;100040.19;;;15.99;67.39
69842;BME280;57138;51.326;-0.068;2022-07-29T06:41:48;100049.25;;;16.05;67.14
69842;BME280;57138;51.326;-0.068;2022-07-29T06:44:14;100022.00;;;15.95;67.14
69842;BME280;57138;51.326;-0.068;2022-07-29T06:46:40;100047.41;;;16.17;67.12
69842;BME280;57138;51.326;-0.068;2022-07-29T06:49:07;100005.34;;;15.98;67.34
69842;BME280;57138;51.326;-0.068;2022-07-29T06:51:33;100003.41;;;16.05;67.17
69842;BME280;57138;51.326;-0.068;2022-07-29T06:53:58;100054.72;;;16.41;67.52
69842;BME280;57138;51.326;-0.068;2022-07-29T06:56:24;100009.91;;;16.28;66.52
69842;BME280;57138;51.326;-0.068;2022-07-29T06:58:50;100019.66;;;16.41;66.57
69842;BME280;57138;51.326;-0.068;2022-07-29T07:01:15;100032.25;;;16.59;66.52
69842;BME280;57138;51.326;-0.068;2022-07-29T07:03:41;100055.25;;;16.73;66.21
69842;BME280;57138;51.326;-0.068;2022-07-29T07:06:07;100040.47;;;16.64;66.64
69842;BME280;57138;51.326;-0.068;2022-07-29T07:08:33;100055.41;;;16.78;66.46
69842;BME280;57138;51.326;-0.068;2022-07-29T07:10:58;100065.03;;;16.86;66.20
69842;BME280;57138;51.326;-0.068;2022-07-29T07:13:24;100046.84;;;16.81;66.26
69842;BME280;57138;51.326;-0.068;2022-07-29T07:15:50;100054.94;;;16.93;66.11
69842;BME280;57138;51.326;-0.068;2022-07-29T07:18:17;100047.09;;;16.92;65.81
69842;BME280;57138;51.326;-0.068;2022-07-29T07:20:44;100045.44;;;17.02;66.23
69842;BME280;57138;51.326;-0.068;2022-07-29T07:23:10;100061.88;;;17.24;65.83
69842;BME280;57138;51.326;-0.068;2022-07-29T07:25:36;100066.09;;;17.44;65.62
69842;BME280;57138;51.326;-0.068;2022-07-29T07:28:02;100059.72;;;17.50;65.17
69842;BME280;57138;51.326;-0.068;2022-07-29T07:30:28;100051.25;;;17.47;65.30
69842;BME280;57138;51.326;-0.068;2022-07-29T07:32:54;100041.47;;;17.57;65.25
69842;BME280;57138;51.326;-0.068;2022-07-29T07:35:20;100055.75;;;17.82;64.79
69842;BME280;57138;51.326;-0.068;2022-07-29T07:37:46;100058.34;;;18.17;64.04
69842;BME280;57138;51.326;-0.068;2022-07-29T07:40:12;100056.56;;;18.40;63.60
69842;BME280;57138;51.326;-0.068;2022-07-29T07:42:40;100049.28;;;18.57;62.72
69842;BME280;57138;51.326;-0.068;2022-07-29T07:45:06;100065.38;;;18.81;62.49
69842;BME280;57138;51.326;-0.068;2022-07-29T07:47:34;100068.09;;;18.98;61.76
69842;BME280;57138;51.326;-0.068;2022-07-29T07:50:00;100069.91;;;19.09;61.60
69842;BME280;57138;51.326;-0.068;2022-07-29T07:52:25;100070.72;;;19.10;60.89
69842;BME280;57138;51.326;-0.068;2022-07-29T07:54:51;100017.19;;;18.83;61.64
69842;BME280;57138;51.326;-0.068;2022-07-29T07:57:16;100054.03;;;19.18;60.73
69842;BME280;57138;51.326;-0.068;2022-07-29T07:59:42;100075.44;;;19.36;60.47
69842;BME280;57138;51.326;-0.068;2022-07-29T08:02:09;100063.91;;;19.46;60.34
69842;BME280;57138;51.326;-0.068;2022-07-29T08:04:35;100070.41;;;19.67;58.76
69842;BME280;57138;51.326;-0.068;2022-07-29T08:07:02;100055.28;;;19.71;58.34
69842;BME280;57138;51.326;-0.068;2022-07-29T08:09:28;100064.44;;;19.87;58.21
69842;BME280;57138;51.326;-0.068;2022-07-29T08:11:55;100062.09;;;19.96;56.68
69842;BME280;57138;51.326;-0.068;2022-07-29T08:14:21;100070.97;;;20.14;56.41
69842;BME280;57138;51.326;-0.068;2022-07-29T08:16:47;100050.94;;;20.20;55.41
69842;BME280;57138;51.326;-0.068;2022-07-29T08:19:12;100080.22;;;20.45;52.01
69842;BME280;57138;51.326;-0.068;2022-07-29T08:21:38;100077.25;;;20.46;52.17
69842;BME280;57138;51.326;-0.068;2022-07-29T08:24:04;100058.75;;;20.43;52.95
69842;BME280;57138;51.326;-0.068;2022-07-29T08:26:49;100085.53;;;20.62;52.45
69842;BME280;57138;51.326;-0.068;2022-07-29T08:29:14;100059.41;;;20.56;52.07
69842;BME280;57138;51.326;-0.068;2022-07-29T08:31:40;100053.25;;;20.65;50.88
69842;BME280;57138;51.326;-0.068;2022-07-29T08:34:06;100061.25;;;20.77;51.31
69842;BME280;57138;51.326;-0.068;2022-07-29T08:36:33;100079.06;;;21.00;51.35
69842;BME280;57138;51.326;-0.068;2022-07-29T08:38:59;100081.03;;;21.10;51.72
69842;BME280;57138;51.326;-0.068;2022-07-29T08:41:26;100077.00;;;21.18;50.30
69842;BME280;57138;51.326;-0.068;2022-07-29T08:43:52;100046.31;;;21.23;50.02
69842;BME280;57138;51.326;-0.068;2022-07-29T08:46:18;100072.81;;;21.48;48.94
69842;BME280;57138;51.326;-0.068;2022-07-29T08:48:45;100061.13;;;21.47;47.32
69842;BME280;57138;51.326;-0.068;2022-07-29T08:51:16;100076.72;;;21.62;46.59
69842;BME280;57138;51.326;-0.068;2022-07-29T08:53:43;100072.41;;;21.77;47.01
69842;BME280;57138;51.326;-0.068;2022-07-29T08:56:13;100072.19;;;21.83;46.00
69842;BME280;57138;51.326;-0.068;2022-07-29T08:58:39;100061.84;;;21.90;45.79
69842;BME280;57138;51.326;-0.068;2022-07-29T09:01:07;100063.22;;;21.88;46.70
69842;BME280;57138;51.326;-0.068;2022-07-29T09:03:36;100071.69;;;22.02;47.04
69842;BME280;57138;51.326;-0.068;2022-07-29T09:06:03;100044.13;;;21.83;47.88
69842;BME280;57138;51.326;-0.068;2022-07-29T09:08:31;100056.16;;;21.97;47.60
69842;BME280;57138;51.326;-0.068;2022-07-29T09:10:56;100062.47;;;22.08;47.98
69842;BME280;57138;51.326;-0.068;2022-07-29T09:13:25;100066.28;;;22.27;47.41
69842;BME280;57138;51.326;-0.068;2022-07-29T09:15:52;100071.78;;;22.48;46.30
69842;BME280;57138;51.326;-0.068;2022-07-29T09:18:41;100059.81;;;22.44;44.19
69842;BME280;57138;51.326;-0.068;2022-07-29T09:21:11;99989.47;;;22.05;43.64
69842;BME280;57138;51.326;-0.068;2022-07-29T09:24:10;100057.88;;;22.50;43.16
69842;BME280;57138;51.326;-0.068;2022-07-29T09:26:43;100076.44;;;22.63;43.14
69842;BME280;57138;51.326;-0.068;2022-07-29T09:29:13;100080.53;;;22.71;43.75
69842;BME280;57138;51.326;-0.068;2022-07-29T09:31:41;100071.25;;;22.82;42.83
69842;BME280;57138;51.326;-0.068;2022-07-29T09:34:08;100069.06;;;22.94;42.30
69842;BME280;57138;51.326;-0.068;2022-07-29T09:36:45;100060.84;;;23.00;41.63
69842;BME280;57138;51.326;-0.068;2022-07-29T09:39:14;100060.88;;;23.10;41.17
69842;BME280;57138;51.326;-0.068;2022-07-29T09:41:53;100049.41;;;22.97;41.06
69842;BME280;57138;51.326;-0.068;2022-07-29T09:44:20;100055.69;;;23.03;41.20
69842;BME280;57138;51.326;-0.068;2022-07-29T09:47:02;100054.31;;;23.06;40.94
69842;BME280;57138;51.326;-0.068;2022-07-29T09:49:35;100078.84;;;23.21;41.03
69842;BME280;57138;51.326;-0.068;2022-07-29T09:52:08;100067.38;;;23.24;41.52
69842;BME280;57138;51.326;-0.068;2022-07-29T09:54:38;100045.06;;;23.17;40.39
69842;BME280;57138;51.326;-0.068;2022-07-29T09:57:08;100076.34;;;23.40;40.10
69842;BME280;57138;51.326;-0.068;2022-07-29T09:59:38;100025.38;;;23.25;39.35
69842;BME280;57138;51.326;-0.068;2022-07-29T10:02:12;100053.44;;;23.31;39.96
69842;BME280;57138;51.326;-0.068;2022-07-29T10:04:42;100068.16;;;23.45;40.15
69842;BME280;57138;51.326;-0.068;2022-07-29T10:07:08;100053.16;;;23.43;40.29
69842;BME280;57138;51.326;-0.068;2022-07-29T10:09:35;100067.28;;;23.55;40.73
69842;BME280;57138;51.326;-0.068;2022-07-29T10:12:13;100067.25;;;23.65;40.24
69842;BME280;57138;51.326;-0.068;2022-07-29T10:14:40;100061.75;;;23.76;39.89
69842;BME280;57138;51.326;-0.068;2022-07-29T10:17:08;100064.97;;;23.88;39.17
69842;BME280;57138;51.326;-0.068;2022-07-29T10:19:36;100051.91;;;23.80;39.00
69842;BME280;57138;51.326;-0.068;2022-07-29T10:22:05;100061.44;;;23.88;39.47
69842;BME280;57138;51.326;-0.068;2022-07-29T10:24:32;100058.41;;;23.94;39.19
69842;BME280;57138;51.326;-0.068;2022-07-29T10:27:00;100045.78;;;24.03;39.39
69842;BME280;57138;51.326;-0.068;2022-07-29T10:29:27;100031.03;;;24.04;38.85
69842;BME280;57138;51.326;-0.068;2022-07-29T10:43:46;100030.31;;;24.28;39.00
69842;BME280;57138;51.326;-0.068;2022-07-29T10:46:13;100059.06;;;24.60;38.82
69842;BME280;57138;51.326;-0.068;2022-07-29T10:51:52;100062.81;;;24.69;37.74
69842;BME280;57138;51.326;-0.068;2022-07-29T10:54:35;100019.56;;;24.42;38.30
69842;BME280;57138;51.326;-0.068;2022-07-29T10:57:27;100053.97;;;24.77;37.79
69842;BME280;57138;51.326;-0.068;2022-07-29T11:05:08;100061.94;;;25.03;36.99
69842;BME280;57138;51.326;-0.068;2022-07-29T11:07:36;100063.25;;;25.11;37.21
69842;BME280;57138;51.326;-0.068;2022-07-29T11:15:15;100066.84;;;25.36;36.55
69842;BME280;57138;51.326;-0.068;2022-07-29T11:20:41;100058.09;;;25.58;34.94
69842;BME280;57138;51.326;-0.068;2022-07-29T11:25:44;100042.16;;;25.60;34.62
69842;BME280;57138;51.326;-0.068;2022-07-29T11:28:15;100036.09;;;25.63;35.13
69842;BME280;57138;51.326;-0.068;2022-07-29T11:30:49;100039.03;;;25.72;35.01
69842;BME280;57138;51.326;-0.068;2022-07-29T11:33:32;100059.00;;;25.91;34.79
69842;BME280;57138;51.326;-0.068;2022-07-29T11:36:08;100056.56;;;25.90;35.08
69842;BME280;57138;51.326;-0.068;2022-07-29T11:38:36;100011.34;;;25.54;34.60
69842;BME280;57138;51.326;-0.068;2022-07-29T11:43:47;100055.16;;;25.25;35.28
69842;BME280;57138;51.326;-0.068;2022-07-29T11:46:49;100061.00;;;24.89;35.67
69842;BME280;57138;51.326;-0.068;2022-07-29T11:49:25;100055.72;;;24.68;35.81
69842;BME280;57138;51.326;-0.068;2022-07-29T11:51:52;100053.16;;;24.77;35.30
69842;BME280;57138;51.326;-0.068;2022-07-29T11:54:24;100048.34;;;24.98;35.52
69842;BME280;57138;51.326;-0.068;2022-07-29T11:56:51;100049.88;;;25.34;35.62
69842;BME280;57138;51.326;-0.068;2022-07-29T11:59:17;100052.69;;;25.53;34.40
69842;BME280;57138;51.326;-0.068;2022-07-29T12:01:58;100061.69;;;25.77;33.93
69842;BME280;57138;51.326;-0.068;2022-07-29T12:04:25;100052.72;;;25.91;33.74
69842;BME280;57138;51.326;-0.068;2022-07-29T12:06:55;100047.56;;;26.08;33.73
69842;BME280;57138;51.326;-0.068;2022-07-29T12:09:22;100054.97;;;26.27;33.93
69842;BME280;57138;51.326;-0.068;2022-07-29T12:11:58;100036.94;;;26.40;32.63
69842;BME280;57138;51.326;-0.068;2022-07-29T12:14:33;100040.25;;;26.55;32.57
69842;BME280;57138;51.326;-0.068;2022-07-29T12:17:00;99996.34;;;26.42;32.40
69842;BME280;57138;51.326;-0.068;2022-07-29T12:19:26;99996.41;;;26.23;32.30
69842;BME280;57138;51.326;-0.068;2022-07-29T12:21:54;100001.66;;;26.00;32.50
69842;BME280;57138;51.326;-0.068;2022-07-29T12:24:22;100046.31;;;26.00;33.17
69842;BME280;57138;51.326;-0.068;2022-07-29T12:26:58;100052.38;;;25.97;33.33
69842;BME280;57138;51.326;-0.068;2022-07-29T12:29:25;100051.84;;;25.95;32.70
69842;BME280;57138;51.326;-0.068;2022-07-29T12:31:53;100050.19;;;25.75;33.18
69842;BME280;57138;51.326;-0.068;2022-07-29T12:34:22;100030.97;;;25.37;32.98
69842;BME280;57138;51.326;-0.068;2022-07-29T12:36:49;100045.03;;;25.25;33.65
69842;BME280;57138;51.326;-0.068;2022-07-29T12:39:18;100034.69;;;24.93;33.30
69842;BME280;57138;51.326;-0.068;2022-07-29T12:41:44;100046.56;;;24.83;33.91
69842;BME280;57138;51.326;-0.068;2022-07-29T12:44:11;100025.47;;;24.84;34.23
69842;BME280;57138;51.326;-0.068;2022-07-29T12:46:36;100033.56;;;25.23;33.52
69842;BME280;57138;51.326;-0.068;2022-07-29T12:49:03;100021.59;;;25.43;33.10
69842;BME280;57138;51.326;-0.068;2022-07-29T12:51:34;100026.09;;;25.77;32.80
69842;BME280;57138;51.326;-0.068;2022-07-29T12:54:11;100012.09;;;25.79;31.95
69842;BME280;57138;51.326;-0.068;2022-07-29T12:56:42;100030.63;;;26.06;31.84
69842;BME280;57138;51.326;-0.068;2022-07-29T12:59:22;100049.84;;;26.39;31.74
69842;BME280;57138;51.326;-0.068;2022-07-29T13:01:50;100035.19;;;26.63;31.49
69842;BME280;57138;51.326;-0.068;2022-07-29T13:04:28;100040.47;;;26.92;31.54
69842;BME280;57138;51.326;-0.068;2022-07-29T13:07:05;100018.63;;;27.01;30.38
69842;BME280;57138;51.326;-0.068;2022-07-29T13:09:40;100024.94;;;27.01;30.91
69842;BME280;57138;51.326;-0.068;2022-07-29T13:12:08;100038.00;;;26.77;30.87
69842;BME280;57138;51.326;-0.068;2022-07-29T13:14:37;100032.59;;;26.39;30.92
69842;BME280;57138;51.326;-0.068;2022-07-29T13:17:11;99995.28;;;25.86;31.05
69842;BME280;57138;51.326;-0.068;2022-07-29T13:22:19;100005.97;;;25.44;31.78
69842;BME280;57138;51.326;-0.068;2022-07-29T13:24:54;100002.47;;;25.38;32.36
69842;BME280;57138;51.326;-0.068;2022-07-29T13:27:31;100005.97;;;25.44;31.97
69842;BME280;57138;51.326;-0.068;2022-07-29T13:29:59;100026.78;;;25.64;32.95
69842;BME280;57138;51.326;-0.068;2022-07-29T13:32:26;100016.06;;;25.87;32.01
69842;BME280;57138;51.326;-0.068;2022-07-29T13:34:52;100012.59;;;26.19;31.27
69842;BME280;57138;51.326;-0.068;2022-07-29T13:37:18;100007.97;;;26.52;30.24